Time;durP1;ratioP1;P1;durP2;ratioP2;P2;SDS_P1;SDS_P2;PMS_P1;PMS_P2;Temp;Humidity;BMP_temperature;BMP_pressure;BME280_temperature;BME280_humidity;BME280_pressure;Samples;Min_cycle;Max_cycle;Signal;HPM_P1;HPM_P2
2023/09/10 00:00:38;;;;;;;5.70;4.43;;;19.20;96.10;;;;;;4992058;28;20519;-62
2023/09/10 00:03:07;;;;;;;7.03;4.83;;;19.20;96.20;;;;;;4992181;28;20682;-64
2023/09/10 00:05:34;;;;;;;7.43;5.07;;;19.20;96.10;;;;;;4990101;28;20470;-64
2023/09/10 00:08:02;;;;;;;6.40;4.63;;;19.20;95.80;;;;;;4990274;28;20994;-64
2023/09/10 00:10:30;;;;;;;7.80;4.53;;;19.20;95.60;;;;;;4992348;28;20469;-64
2023/09/10 00:12:57;;;;;;;15.03;5.67;;;19.20;95.90;;;;;;4992981;28;21297;-64
2023/09/10 00:15:25;;;;;;;6.57;4.33;;;19.10;96.10;;;;;;4981573;28;20838;-64
2023/09/10 00:17:52;;;;;;;14.50;5.70;;;19.10;95.90;;;;;;5002130;28;20470;-64
2023/09/10 00:20:21;;;;;;;8.30;4.87;;;19.10;95.80;;;;;;4989249;28;20503;-64
2023/09/10 00:22:49;;;;;;;4.67;3.80;;;19.10;95.70;;;;;;4991689;28;20486;-62
2023/09/10 00:25:17;;;;;;;5.47;4.37;;;19.00;96.20;;;;;;4990851;28;20504;-63
2023/09/10 00:27:43;;;;;;;8.83;5.10;;;18.90;96.30;;;;;;4989899;28;20496;-64
2023/09/10 00:30:12;;;;;;;7.87;5.07;;;18.90;96.20;;;;;;4989509;28;20759;-63
2023/09/10 00:32:39;;;;;;;7.40;5.43;;;18.80;96.10;;;;;;4991901;28;20545;-62
2023/09/10 00:35:08;;;;;;;8.90;4.00;;;18.80;95.90;;;;;;4987362;28;20472;-63
2023/09/10 00:37:37;;;;;;;7.53;4.77;;;18.80;95.80;;;;;;4965806;28;20479;-63
2023/09/10 00:40:06;;;;;;;6.90;5.13;;;18.80;96.00;;;;;;4996719;28;20478;-63
2023/09/10 00:42:34;;;;;;;7.50;5.13;;;18.60;96.40;;;;;;4990764;28;20870;-63
2023/09/10 00:45:01;;;;;;;7.10;4.80;;;18.60;96.30;;;;;;4985521;28;20481;-62
2023/09/10 00:47:29;;;;;;;6.23;4.60;;;18.50;96.40;;;;;;4981742;28;20477;-62
2023/09/10 00:49:56;;;;;;;7.70;4.73;;;18.60;96.40;;;;;;5006635;28;20475;-63
2023/09/10 00:52:25;;;;;;;7.17;4.57;;;18.40;96.50;;;;;;4991893;28;20481;-62
2023/09/10 00:54:54;;;;;;;10.80;5.90;;;18.30;97.50;;;;;;4979380;28;21084;-62
2023/09/10 00:57:21;;;;;;;6.67;5.07;;;18.20;97.90;;;;;;5002421;28;20486;-63
2023/09/10 00:59:48;;;;;;;11.20;5.50;;;18.20;98.70;;;;;;4991043;28;20477;-63
2023/09/10 01:02:16;;;;;;;8.70;4.93;;;18.30;98.30;;;;;;4989325;28;20478;-62
2023/09/10 01:04:43;;;;;;;10.10;5.30;;;18.30;98.30;;;;;;4985371;28;21055;-63
2023/09/10 01:07:12;;;;;;;7.47;5.07;;;18.40;98.00;;;;;;4983997;28;20495;-63
2023/09/10 01:09:39;;;;;;;13.43;5.33;;;18.50;97.70;;;;;;4979434;28;20500;-63
2023/09/10 01:12:14;;;;;;;6.43;4.93;;;18.60;97.30;;;;;;4998932;28;20483;-64
2023/09/10 01:14:46;;;;;;;7.40;4.07;;;18.70;97.00;;;;;;4991143;28;20566;-64
2023/09/10 01:17:22;;;;;;;10.03;4.77;;;18.80;96.50;;;;;;4987966;28;21165;-64
2023/09/10 01:20:15;;;;;;;7.90;4.20;;;18.70;96.30;;;;;;4987930;28;20504;-64
2023/09/10 01:22:52;;;;;;;4.77;3.67;;;18.70;96.20;;;;;;4988753;28;20985;-63
2023/09/10 01:25:22;;;;;;;5.27;4.57;;;18.70;96.10;;;;;;4989545;28;20496;-63
2023/09/10 01:27:48;;;;;;;11.20;5.10;;;18.60;96.40;;;;;;4977197;28;21004;-62
2023/09/10 01:30:15;;;;;;;5.80;4.77;;;18.60;96.00;;;;;;4999424;28;21150;-63
2023/09/10 01:32:47;;;;;;;7.10;4.97;;;18.60;95.90;;;;;;4976249;28;20474;-63
2023/09/10 01:35:20;;;;;;;5.97;4.27;;;18.50;96.20;;;;;;4981991;28;20487;-63
2023/09/10 01:37:54;;;;;;;7.40;4.10;;;18.50;96.00;;;;;;4988244;28;20876;-62
2023/09/10 01:40:33;;;;;;;7.03;5.20;;;18.50;96.00;;;;;;4979000;28;20477;-63
2023/09/10 01:43:02;;;;;;;8.07;4.20;;;18.50;95.80;;;;;;4987851;28;20475;-62
2023/09/10 01:45:37;;;;;;;4.60;3.90;;;18.50;96.00;;;;;;4979679;28;20996;-63
2023/09/10 01:48:05;;;;;;;5.50;3.87;;;18.40;95.80;;;;;;4984796;28;20583;-62
2023/09/10 01:50:32;;;;;;;27.23;5.03;;;18.30;96.00;;;;;;4982315;28;21210;-62
2023/09/10 01:52:59;;;;;;;6.67;4.80;;;18.20;96.20;;;;;;4989591;28;20990;-63
2023/09/10 01:55:27;;;;;;;6.70;5.70;;;18.00;96.40;;;;;;4981284;28;20521;-62
2023/09/10 01:57:55;;;;;;;11.00;5.43;;;18.00;96.80;;;;;;4989280;28;20488;-62
2023/09/10 02:00:22;;;;;;;7.70;5.17;;;18.00;96.80;;;;;;4991993;28;20930;-62
2023/09/10 02:02:49;;;;;;;7.13;4.80;;;18.00;96.70;;;;;;4997986;28;21197;-63
2023/09/10 02:05:16;;;;;;;13.50;6.20;;;18.00;96.60;;;;;;4979882;28;20524;-62
2023/09/10 02:07:43;;;;;;;5.87;4.10;;;18.00;96.80;;;;;;4984135;28;20497;-62
2023/09/10 02:10:10;;;;;;;3.93;3.20;;;18.10;96.60;;;;;;5003188;28;20495;-63
2023/09/10 02:12:38;;;;;;;6.70;4.60;;;18.00;96.20;;;;;;4987212;28;20486;-63
2023/09/10 02:15:08;;;;;;;6.03;3.80;;;18.00;96.10;;;;;;4989175;28;20470;-64
2023/09/10 02:17:35;;;;;;;6.50;5.10;;;18.00;96.30;;;;;;4983717;28;20475;-64
2023/09/10 02:20:05;;;;;;;5.27;4.17;;;18.00;96.40;;;;;;4991198;28;20468;-64
2023/09/10 02:22:32;;;;;;;6.70;4.83;;;17.90;96.20;;;;;;4996500;28;20561;-63
2023/09/10 02:25:00;;;;;;;10.13;4.47;;;17.90;96.10;;;;;;4986786;28;21147;-63
2023/09/10 02:27:27;;;;;;;6.33;4.60;;;17.90;96.20;;;;;;4978800;28;20731;-63
2023/09/10 02:29:55;;;;;;;7.13;5.47;;;17.90;96.10;;;;;;4980559;28;20849;-63
2023/09/10 02:32:22;;;;;;;7.13;5.77;;;17.90;96.00;;;;;;4992405;28;20477;-63
2023/09/10 02:34:52;;;;;;;7.20;5.20;;;17.90;96.00;;;;;;4996433;28;20594;-63
2023/09/10 02:37:19;;;;;;;7.00;4.77;;;17.80;96.30;;;;;;4985009;28;20485;-64
2023/09/10 02:39:46;;;;;;;7.00;5.13;;;17.80;96.00;;;;;;4981943;28;21414;-63
2023/09/10 02:42:12;;;;;;;9.80;4.60;;;17.70;96.00;;;;;;4994242;28;20483;-63
2023/09/10 02:44:39;;;;;;;8.50;4.83;;;17.60;96.00;;;;;;4975496;28;20482;-63
2023/09/10 02:47:07;;;;;;;5.90;3.93;;;17.50;96.10;;;;;;5005726;28;21021;-63
2023/09/10 02:49:34;;;;;;;6.07;4.60;;;17.40;96.60;;;;;;4994027;28;20476;-64
2023/09/10 02:52:01;;;;;;;5.90;4.83;;;17.40;96.60;;;;;;5002961;28;20874;-64
2023/09/10 02:54:29;;;;;;;7.30;5.00;;;17.50;96.90;;;;;;4990098;28;20827;-64
2023/09/10 02:56:55;;;;;;;5.33;4.20;;;17.40;97.00;;;;;;4982238;28;20478;-64
2023/09/10 02:59:24;;;;;;;8.50;5.43;;;17.40;96.70;;;;;;4984483;28;20469;-64
2023/09/10 03:01:51;;;;;;;5.40;4.40;;;17.40;96.50;;;;;;4996603;28;20899;-64
2023/09/10 03:04:20;;;;;;;8.30;5.03;;;17.40;96.40;;;;;;4991470;28;20853;-64
2023/09/10 03:06:48;;;;;;;5.03;4.27;;;17.30;96.40;;;;;;4992726;28;20744;-64
2023/09/10 03:09:15;;;;;;;8.13;4.83;;;17.30;96.20;;;;;;4988883;28;20510;-64
2023/09/10 03:11:43;;;;;;;8.73;5.47;;;17.30;96.30;;;;;;4996146;28;20492;-64
2023/09/10 03:14:10;;;;;;;8.30;5.47;;;17.20;96.50;;;;;;4995325;28;20476;-64
2023/09/10 03:16:38;;;;;;;10.20;4.33;;;17.10;96.50;;;;;;4980578;28;20484;-64
2023/09/10 03:19:05;;;;;;;5.53;4.53;;;17.00;96.70;;;;;;4987211;28;20505;-64
2023/09/10 03:21:36;;;;;;;10.00;5.77;;;16.80;96.90;;;;;;4991766;28;20477;-64
2023/09/10 03:24:02;;;;;;;10.53;4.83;;;16.80;96.70;;;;;;4981182;28;20481;-64
2023/09/10 03:26:29;;;;;;;8.23;3.97;;;16.80;96.70;;;;;;4987976;28;20988;-64
2023/09/10 03:28:56;;;;;;;5.97;4.70;;;16.90;96.80;;;;;;4998124;28;20523;-64
2023/09/10 03:31:23;;;;;;;4.90;4.20;;;16.90;96.70;;;;;;4989232;28;20481;-64
2023/09/10 03:33:50;;;;;;;7.20;5.23;;;16.90;96.90;;;;;;4983841;28;20485;-64
2023/09/10 03:36:18;;;;;;;5.70;4.43;;;16.90;96.70;;;;;;4988192;28;20485;-64
2023/09/10 03:38:46;;;;;;;5.00;4.57;;;17.00;96.50;;;;;;4984228;28;20476;-63
2023/09/10 03:41:13;;;;;;;6.40;4.60;;;17.00;96.60;;;;;;4999415;28;21044;-63
2023/09/10 03:43:40;;;;;;;5.40;4.20;;;17.00;96.70;;;;;;4983298;28;20486;-64
2023/09/10 03:46:07;;;;;;;11.40;5.10;;;17.00;96.50;;;;;;4976750;28;20915;-64
2023/09/10 03:48:33;;;;;;;6.90;4.17;;;17.00;96.30;;;;;;4984794;28;21331;-63
2023/09/10 03:51:00;;;;;;;4.47;3.97;;;17.00;96.40;;;;;;5001032;28;20482;-63
2023/09/10 03:53:27;;;;;;;4.93;4.23;;;17.00;96.40;;;;;;4983400;28;21107;-64
2023/09/10 03:55:55;;;;;;;8.10;4.87;;;16.90;96.20;;;;;;4990122;28;21023;-63
2023/09/10 03:58:22;;;;;;;10.20;5.70;;;16.90;96.30;;;;;;4984599;28;20486;-63
2023/09/10 04:00:49;;;;;;;4.90;4.37;;;16.90;96.30;;;;;;4978959;28;20473;-64
2023/09/10 04:03:16;;;;;;;6.73;5.33;;;16.90;96.50;;;;;;4984945;28;21099;-64
2023/09/10 04:05:42;;;;;;;9.10;5.23;;;16.80;96.30;;;;;;4986526;28;20486;-64
2023/09/10 04:08:09;;;;;;;14.30;5.60;;;16.80;96.40;;;;;;4985209;28;20510;-64
2023/09/10 04:10:36;;;;;;;7.30;4.77;;;16.80;96.30;;;;;;4981559;28;20893;-64
2023/09/10 04:13:05;;;;;;;6.17;5.40;;;16.80;96.40;;;;;;5000481;28;20480;-64
2023/09/10 04:15:32;;;;;;;9.20;5.60;;;16.80;96.80;;;;;;4982820;28;20484;-64
2023/09/10 04:17:59;;;;;;;12.50;5.93;;;16.80;96.20;;;;;;4981813;28;20509;-64
2023/09/10 04:20:26;;;;;;;6.40;5.33;;;16.80;96.50;;;;;;4984196;28;20509;-64
2023/09/10 04:22:52;;;;;;;6.60;4.40;;;16.70;96.30;;;;;;4991171;28;20476;-64
2023/09/10 04:25:19;;;;;;;4.90;4.13;;;16.70;96.20;;;;;;4984983;28;20494;-64
2023/09/10 04:27:46;;;;;;;6.57;5.27;;;16.70;96.10;;;;;;4983582;28;20499;-64
2023/09/10 04:30:15;;;;;;;4.97;3.83;;;16.70;96.30;;;;;;4990032;28;20703;-64
2023/09/10 04:32:41;;;;;;;9.30;5.63;;;16.60;96.20;;;;;;5002564;28;20488;-63
2023/09/10 04:35:10;;;;;;;12.57;4.70;;;16.60;96.40;;;;;;4990891;28;20479;-63
2023/09/10 04:37:37;;;;;;;4.20;3.43;;;16.60;96.40;;;;;;4971916;28;21078;-63
2023/09/10 04:40:07;;;;;;;9.60;5.70;;;16.50;96.20;;;;;;4989400;28;20486;-63
2023/09/10 04:42:33;;;;;;;5.70;4.20;;;16.50;96.40;;;;;;4976870;28;20625;-63
2023/09/10 04:45:00;;;;;;;7.27;5.17;;;16.50;96.80;;;;;;4998182;28;21059;-63
2023/09/10 04:47:28;;;;;;;11.53;5.40;;;16.50;96.60;;;;;;4983601;28;20490;-63
2023/09/10 04:49:55;;;;;;;7.97;5.00;;;16.60;96.20;;;;;;4991275;28;20489;-63
2023/09/10 04:52:22;;;;;;;4.47;3.70;;;16.50;96.20;;;;;;4979109;28;20836;-64
2023/09/10 04:54:49;;;;;;;5.27;4.63;;;16.50;96.30;;;;;;5002449;28;20474;-64
2023/09/10 04:57:16;;;;;;;4.63;3.80;;;16.50;96.20;;;;;;4989085;28;20857;-64
2023/09/10 04:59:43;;;;;;;6.07;5.00;;;16.50;96.40;;;;;;4992972;28;21070;-64
2023/09/10 05:02:10;;;;;;;6.07;4.20;;;16.50;96.40;;;;;;4993482;28;20954;-64
2023/09/10 05:04:38;;;;;;;5.00;4.10;;;16.50;96.20;;;;;;4986524;28;20569;-64
2023/09/10 05:07:04;;;;;;;5.60;4.80;;;16.50;96.20;;;;;;4982254;28;20484;-64
2023/09/10 05:09:31;;;;;;;8.47;5.17;;;16.50;96.30;;;;;;4981859;28;20891;-64
2023/09/10 05:11:58;;;;;;;6.40;4.83;;;16.50;96.20;;;;;;4992046;28;20488;-64
2023/09/10 05:14:25;;;;;;;6.43;4.07;;;16.50;96.20;;;;;;4989306;28;20477;-64
2023/09/10 05:16:52;;;;;;;7.53;4.90;;;16.50;96.10;;;;;;4978604;28;20466;-64
2023/09/10 05:19:19;;;;;;;4.83;4.37;;;16.50;96.00;;;;;;4991801;28;20469;-64
2023/09/10 05:21:47;;;;;;;7.63;4.87;;;16.50;96.10;;;;;;4989321;28;20482;-64
2023/09/10 05:24:14;;;;;;;4.43;3.93;;;16.40;96.30;;;;;;4994379;28;20869;-64
2023/09/10 05:26:41;;;;;;;7.87;5.87;;;16.40;96.20;;;;;;4974719;28;20483;-64
2023/09/10 05:29:08;;;;;;;5.20;4.70;;;16.40;96.30;;;;;;4994018;28;20575;-63
2023/09/10 05:31:34;;;;;;;5.40;4.90;;;16.40;96.40;;;;;;4994686;28;20842;-64
2023/09/10 05:34:04;;;;;;;5.03;4.63;;;16.40;96.20;;;;;;4994641;28;20480;-64
2023/09/10 05:36:31;;;;;;;4.90;3.70;;;16.40;96.40;;;;;;4977224;28;20568;-64
2023/09/10 05:38:59;;;;;;;5.17;4.40;;;16.30;96.60;;;;;;4978566;28;20525;-64
2023/09/10 05:41:26;;;;;;;10.10;5.90;;;16.20;96.80;;;;;;4997459;28;21017;-62
2023/09/10 05:43:53;;;;;;;6.27;3.97;;;16.10;97.50;;;;;;4990053;28;20695;-63
2023/09/10 05:46:19;;;;;;;11.37;5.50;;;16.00;97.80;;;;;;4994675;28;20577;-62
2023/09/10 05:48:46;;;;;;;6.53;4.80;;;15.90;98.00;;;;;;4988673;28;20483;-63
2023/09/10 05:51:13;;;;;;;6.80;5.17;;;15.90;98.10;;;;;;4993636;28;20487;-62
2023/09/10 05:53:42;;;;;;;5.50;4.13;;;15.90;98.40;;;;;;4989261;28;20505;-63
2023/09/10 05:56:10;;;;;;;12.57;5.90;;;15.80;99.10;;;;;;4982862;28;20477;-63
2023/09/10 05:58:37;;;;;;;13.50;6.33;;;15.80;99.50;;;;;;4994947;28;21006;-62
2023/09/10 06:01:04;;;;;;;8.73;6.40;;;15.70;99.50;;;;;;4986771;28;20840;-62
2023/09/10 06:03:31;;;;;;;8.23;5.53;;;15.70;99.70;;;;;;4984211;28;20482;-62
2023/09/10 06:05:58;;;;;;;11.17;7.07;;;15.70;99.90;;;;;;4987777;28;20489;-62
2023/09/10 06:08:25;;;;;;;13.20;6.33;;;15.80;99.90;;;;;;4990426;28;20471;-62
2023/09/10 06:10:52;;;;;;;8.80;5.10;;;15.80;99.90;;;;;;4995621;28;20904;-62
2023/09/10 06:13:20;;;;;;;8.60;6.40;;;16.00;99.90;;;;;;4998217;28;20829;-63
2023/09/10 06:15:47;;;;;;;10.20;7.40;;;16.20;99.90;;;;;;4998201;28;20486;-63
2023/09/10 06:18:13;;;;;;;14.87;6.03;;;16.40;99.90;;;;;;4986578;28;20898;-64
2023/09/10 06:20:40;;;;;;;10.67;7.10;;;16.60;99.90;;;;;;4993521;28;20481;-64
2023/09/10 06:23:07;;;;;;;14.60;6.87;;;16.90;99.90;;;;;;4994274;28;20888;-63
2023/09/10 06:25:34;;;;;;;10.13;6.90;;;17.00;99.90;;;;;;4983685;28;20484;-64
2023/09/10 06:28:01;;;;;;;8.43;7.03;;;17.30;99.90;;;;;;4991255;28;20481;-64
2023/09/10 06:30:29;;;;;;;12.47;7.40;;;17.50;99.90;;;;;;4992330;28;20483;-64
2023/09/10 06:32:57;;;;;;;15.00;9.90;;;17.70;99.90;;;;;;4992041;28;20500;-64
2023/09/10 06:35:25;;;;;;;13.50;7.53;;;17.90;99.90;;;;;;4994993;28;20989;-63
2023/09/10 06:37:52;;;;;;;14.77;7.77;;;18.20;99.90;;;;;;4990556;28;20844;-64
2023/09/10 06:40:18;;;;;;;10.70;7.17;;;18.50;99.90;;;;;;4990036;28;20485;-64
2023/09/10 06:42:45;;;;;;;14.80;9.50;;;19.20;99.90;;;;;;4990840;28;21223;-64
2023/09/10 06:45:12;;;;;;;13.50;9.50;;;20.20;99.90;;;;;;4993866;28;20514;-64
2023/09/10 06:47:40;;;;;;;11.40;7.87;;;21.40;99.00;;;;;;4997083;28;20488;-64
2023/09/10 06:50:08;;;;;;;7.63;6.07;;;22.60;97.50;;;;;;4982880;28;20479;-64
2023/09/10 06:52:35;;;;;;;10.80;7.80;;;23.70;96.10;;;;;;5009872;28;20482;-63
2023/09/10 06:55:03;;;;;;;8.97;7.20;;;24.80;95.20;;;;;;4987772;28;20484;-64
2023/09/10 06:57:30;;;;;;;8.73;6.70;;;25.70;93.90;;;;;;4987264;28;21313;-64
2023/09/10 06:59:58;;;;;;;8.70;7.80;;;26.40;93.60;;;;;;4987580;28;20486;-63
2023/09/10 07:02:25;;;;;;;9.30;6.90;;;27.10;93.00;;;;;;4970519;28;20481;-64
2023/09/10 07:04:53;;;;;;;8.60;7.30;;;27.60;91.90;;;;;;4995400;28;20489;-64
2023/09/10 07:07:20;;;;;;;9.37;7.90;;;28.20;91.50;;;;;;4987778;28;21096;-64
2023/09/10 07:09:47;;;;;;;7.83;7.10;;;28.60;90.90;;;;;;4985769;28;20497;-64
2023/09/10 07:12:14;;;;;;;7.43;6.73;;;29.00;90.70;;;;;;4992943;28;20998;-64
2023/09/10 07:14:42;;;;;;;8.23;7.20;;;29.20;90.00;;;;;;4990334;28;21138;-64
2023/09/10 07:17:09;;;;;;;7.33;6.27;;;29.30;90.00;;;;;;4992535;28;20796;-64
2023/09/10 07:19:36;;;;;;;7.93;7.13;;;29.40;90.30;;;;;;4998112;28;20478;-64
2023/09/10 07:22:04;;;;;;;8.87;7.50;;;29.30;89.90;;;;;;4992148;28;20489;-64
2023/09/10 07:24:31;;;;;;;7.73;6.93;;;29.20;90.10;;;;;;4983638;28;20481;-64
2023/09/10 07:26:58;;;;;;;8.40;7.20;;;29.10;90.20;;;;;;4980821;28;20491;-64
2023/09/10 07:29:25;;;;;;;11.67;7.63;;;29.10;88.60;;;;;;4966664;28;20881;-64
2023/09/10 07:31:52;;;;;;;10.47;8.00;;;29.00;88.80;;;;;;5013473;28;20485;-66
2023/09/10 07:34:20;;;;;;;10.57;7.90;;;29.00;88.90;;;;;;4991390;28;20885;-66
2023/09/10 07:36:47;;;;;;;8.93;7.73;;;28.80;90.10;;;;;;4988243;28;20529;-66
2023/09/10 07:39:15;;;;;;;9.70;7.90;;;28.80;90.90;;;;;;4987153;28;20477;-65
2023/09/10 07:41:42;;;;;;;15.20;8.10;;;28.70;91.10;;;;;;4993844;28;20851;-66
2023/09/10 07:44:08;;;;;;;10.83;8.20;;;28.50;91.30;;;;;;4995066;28;21014;-66
2023/09/10 07:46:35;;;;;;;9.90;8.17;;;28.50;92.80;;;;;;4991017;28;20490;-66
2023/09/10 07:49:02;;;;;;;9.63;8.63;;;28.50;92.00;;;;;;4979461;28;20492;-65
2023/09/10 07:51:29;;;;;;;10.87;8.53;;;28.50;92.00;;;;;;4997026;28;20551;-65
2023/09/10 07:53:56;;;;;;;9.30;7.33;;;28.40;92.70;;;;;;4977921;28;20478;-65
2023/09/10 07:56:24;;;;;;;12.73;8.87;;;28.40;92.50;;;;;;4987435;28;20451;-65
2023/09/10 07:58:50;;;;;;;11.20;8.50;;;28.50;91.00;;;;;;4986493;28;20473;-65
2023/09/10 08:01:18;;;;;;;10.10;7.57;;;28.50;92.10;;;;;;4986349;28;20735;-65
2023/09/10 08:03:45;;;;;;;8.17;7.40;;;28.50;91.80;;;;;;4985585;28;20558;-65
2023/09/10 08:06:11;;;;;;;11.70;7.93;;;28.50;91.60;;;;;;4997379;28;20485;-65
2023/09/10 08:08:40;;;;;;;11.57;8.40;;;28.60;92.20;;;;;;4988021;28;20482;-65
2023/09/10 08:11:07;;;;;;;9.90;8.20;;;28.70;92.60;;;;;;4985391;28;20811;-65
2023/09/10 08:13:35;;;;;;;8.97;7.97;;;28.70;92.30;;;;;;4982948;28;20494;-65
2023/09/10 08:16:01;;;;;;;11.00;7.43;;;28.80;92.00;;;;;;4992880;28;20484;-65
2023/09/10 08:18:28;;;;;;;9.03;7.63;;;28.80;92.40;;;;;;4993593;28;20835;-65
2023/09/10 08:20:55;;;;;;;9.40;7.60;;;28.50;92.90;;;;;;4990394;28;20480;-66
2023/09/10 08:23:22;;;;;;;8.37;7.57;;;28.30;93.60;;;;;;4988404;28;20456;-65
2023/09/10 08:25:52;;;;;;;12.37;8.20;;;28.40;93.50;;;;;;4985885;28;20969;-66
2023/09/10 08:28:18;;;;;;;8.27;6.93;;;28.50;93.30;;;;;;4989170;28;20452;-66
2023/09/10 08:30:47;;;;;;;10.17;7.10;;;28.70;93.30;;;;;;5005310;28;20479;-66
2023/09/10 08:33:13;;;;;;;9.23;7.13;;;28.90;93.70;;;;;;4980342;28;20812;-66
2023/09/10 08:35:45;;;;;;;8.13;7.13;;;29.10;93.00;;;;;;4990842;28;25300;-66
2023/09/10 08:38:12;;;;;;;11.97;7.70;;;29.30;92.90;;;;;;4983724;28;20867;-66
2023/09/10 08:40:46;;;;;;;10.17;7.40;;;29.50;92.60;;;;;;4994585;28;20485;-66
2023/09/10 08:43:19;;;;;;;10.77;7.43;;;29.70;92.60;;;;;;4996786;28;20484;-66
2023/09/10 08:45:47;;;;;;;9.17;7.10;;;29.80;92.40;;;;;;4984020;28;20476;-66
2023/09/10 08:48:15;;;;;;;9.97;7.77;;;30.00;92.60;;;;;;4985191;28;20467;-66
2023/09/10 08:50:42;;;;;;;7.63;6.57;;;30.20;91.90;;;;;;4984259;28;20552;-67
2023/09/10 08:53:13;;;;;;;9.67;6.70;;;30.40;92.00;;;;;;5005264;28;20498;-66
2023/09/10 08:55:42;;;;;;;8.27;7.37;;;30.60;91.80;;;;;;4984203;28;20486;-66
2023/09/10 08:58:12;;;;;;;8.00;7.23;;;30.80;91.10;;;;;;4974825;28;20480;-67
2023/09/10 09:00:39;;;;;;;11.03;7.80;;;30.90;91.00;;;;;;5000222;28;20516;-67
2023/09/10 09:03:08;;;;;;;8.80;7.90;;;31.10;91.50;;;;;;5000561;28;20481;-66
2023/09/10 09:05:36;;;;;;;9.17;7.33;;;31.20;91.10;;;;;;4994573;28;20647;-67
2023/09/10 09:08:11;;;;;;;8.03;6.43;;;31.40;91.10;;;;;;4995755;28;20911;-66
2023/09/10 09:10:38;;;;;;;8.20;7.37;;;31.60;90.70;;;;;;4987013;28;20488;-66
2023/09/10 09:13:10;;;;;;;12.43;7.07;;;31.70;90.30;;;;;;4984261;28;20494;-67
2023/09/10 09:15:39;;;;;;;8.20;6.90;;;31.80;90.50;;;;;;4970137;28;20491;-67
2023/09/10 09:18:13;;;;;;;7.73;6.93;;;32.00;90.00;;;;;;4986618;28;20465;-67
2023/09/10 09:20:43;;;;;;;9.13;7.23;;;32.10;89.70;;;;;;4988032;28;20495;-67
2023/09/10 09:23:17;;;;;;;8.33;6.93;;;32.20;90.00;;;;;;4981454;28;20566;-67
2023/09/10 09:25:44;;;;;;;7.27;6.60;;;32.30;90.00;;;;;;4989695;28;20849;-67
2023/09/10 09:28:12;;;;;;;7.77;6.93;;;32.40;90.00;;;;;;4988301;28;20474;-67
2023/09/10 09:30:39;;;;;;;7.90;6.80;;;32.10;88.70;;;;;;4990978;28;20539;-67
2023/09/10 09:33:08;;;;;;;7.90;7.10;;;31.80;87.40;;;;;;4993972;28;20466;-67
2023/09/10 09:35:35;;;;;;;8.30;7.30;;;31.50;89.90;;;;;;4964142;28;20494;-67
2023/09/10 09:38:06;;;;;;;7.17;6.47;;;31.30;88.80;;;;;;4987539;28;20460;-67
2023/09/10 09:40:35;;;;;;;7.97;6.70;;;31.20;89.70;;;;;;4989796;28;20848;-67
2023/09/10 09:43:01;;;;;;;7.10;6.40;;;31.10;87.90;;;;;;4992324;28;20489;-67
2023/09/10 09:45:30;;;;;;;6.27;5.67;;;31.30;89.20;;;;;;4983068;28;20453;-67
2023/09/10 09:47:57;;;;;;;9.10;7.43;;;31.50;88.60;;;;;;4977057;28;20487;-67
2023/09/10 09:50:27;;;;;;;6.50;5.60;;;31.60;86.80;;;;;;4994275;28;20508;-67
2023/09/10 09:52:55;;;;;;;10.20;7.63;;;31.80;89.30;;;;;;4993397;28;20522;-66
2023/09/10 09:55:22;;;;;;;7.90;6.00;;;31.90;83.60;;;;;;4980945;28;20532;-66
2023/09/10 09:57:49;;;;;;;8.40;6.00;;;31.90;83.60;;;;;;4984559;28;20478;-66
2023/09/10 10:00:17;;;;;;;10.33;6.60;;;31.60;84.80;;;;;;4997772;28;20931;-65
2023/09/10 10:02:45;;;;;;;7.90;6.07;;;31.60;83.70;;;;;;4992765;28;20489;-66
2023/09/10 10:05:13;;;;;;;6.77;5.37;;;31.80;87.70;;;;;;4999852;28;20883;-66
2023/09/10 10:07:44;;;;;;;9.40;6.27;;;32.00;87.20;;;;;;4978744;28;20468;-66
2023/09/10 10:10:16;;;;;;;7.70;6.10;;;32.20;85.10;;;;;;5002029;28;20570;-66
2023/09/10 10:12:45;;;;;;;7.20;6.13;;;32.30;87.80;;;;;;4994697;28;20596;-66
2023/09/10 10:15:13;;;;;;;9.43;6.50;;;32.50;89.20;;;;;;4997771;28;20987;-66
2023/09/10 10:17:44;;;;;;;8.27;6.63;;;32.60;86.30;;;;;;4981790;28;20872;-66
2023/09/10 10:20:11;;;;;;;9.00;6.07;;;32.50;82.10;;;;;;4985407;28;20469;-66
2023/09/10 10:22:38;;;;;;;13.43;7.10;;;32.70;85.80;;;;;;5000225;28;20485;-68
2023/09/10 10:25:08;;;;;;;6.63;5.60;;;32.60;80.30;;;;;;4990100;28;20477;-68
2023/09/10 10:27:36;;;;;;;8.30;6.37;;;32.70;86.10;;;;;;4979992;28;20468;-68
2023/09/10 10:30:03;;;;;;;7.57;6.77;;;32.90;86.10;;;;;;4989381;28;20457;-68
2023/09/10 10:32:36;;;;;;;9.93;6.10;;;33.10;85.80;;;;;;4995217;28;21195;-68
2023/09/10 10:35:05;;;;;;;7.57;5.63;;;33.30;84.70;;;;;;4987411;28;21026;-68
2023/09/10 10:37:42;;;;;;;6.93;6.30;;;33.40;85.10;;;;;;4979355;28;20537;-68
2023/09/10 10:40:14;;;;;;;9.63;6.80;;;33.60;82.80;;;;;;4986900;28;20463;-67
2023/09/10 10:42:49;;;;;;;7.47;6.10;;;33.50;82.40;;;;;;4994066;28;21060;-67
2023/09/10 10:45:17;;;;;;;9.47;6.47;;;33.40;81.80;;;;;;4976222;28;20704;-68
2023/09/10 10:47:46;;;;;;;9.10;6.40;;;33.50;82.70;;;;;;5004316;28;20476;-68
2023/09/10 10:50:16;;;;;;;7.40;5.80;;;33.70;84.40;;;;;;4981386;28;20467;-68
2023/09/10 10:52:48;;;;;;;9.77;5.30;;;33.90;83.20;;;;;;4989877;28;21066;-68
2023/09/10 10:55:18;;;;;;;6.07;4.80;;;34.10;82.80;;;;;;4986802;28;20986;-67
2023/09/10 10:57:45;;;;;;;7.70;5.20;;;33.70;81.80;;;;;;4986592;28;20456;-67
2023/09/10 11:00:13;;;;;;;8.13;4.53;;;33.70;76.60;;;;;;4988146;28;20492;-67
2023/09/10 11:02:40;;;;;;;7.50;5.27;;;33.70;80.40;;;;;;4986788;28;20460;-67
2023/09/10 11:05:08;;;;;;;9.13;5.50;;;33.50;75.00;;;;;;4990705;28;21111;-66
2023/09/10 11:07:35;;;;;;;7.40;5.80;;;33.30;75.40;;;;;;4991431;28;20488;-66
2023/09/10 11:10:35;;;;;;;6.93;5.40;;;33.10;76.00;;;;;;4981559;28;20459;-66
2023/09/10 11:13:07;;;;;;;8.70;6.27;;;33.10;78.70;;;;;;4989282;28;20659;-66
2023/09/10 11:15:33;;;;;;;11.13;5.03;;;33.20;77.90;;;;;;4990316;28;20472;-66
2023/09/10 11:18:41;;;;;;;6.90;5.30;;;33.40;80.20;;;;;;4993578;28;20448;-67
2023/09/10 11:21:10;;;;;;;7.50;5.70;;;33.60;79.60;;;;;;4987386;28;20474;-67
2023/09/10 11:23:39;;;;;;;9.67;5.93;;;33.90;79.80;;;;;;4991481;28;20488;-67
2023/09/10 11:26:33;;;;;;;5.83;5.23;;;33.90;75.60;;;;;;4987535;28;20785;-67
2023/09/10 11:29:04;;;;;;;11.70;5.77;;;34.00;80.30;;;;;;4964073;28;20479;-67
2023/09/10 11:31:41;;;;;;;7.43;5.43;;;34.00;75.60;;;;;;4981031;28;21005;-66
2023/09/10 11:34:39;;;;;;;11.23;4.80;;;33.90;76.80;;;;;;4988323;28;20555;-67
2023/09/10 11:37:08;;;;;;;10.93;5.50;;;33.90;75.10;;;;;;4977105;28;20483;-66
2023/09/10 11:39:36;;;;;;;12.07;5.83;;;33.80;71.40;;;;;;4987840;28;20577;-66
2023/09/10 11:42:11;;;;;;;8.63;5.17;;;33.70;72.10;;;;;;4991435;28;20491;-66
2023/09/10 11:44:39;;;;;;;12.10;5.20;;;33.80;78.20;;;;;;4983513;28;20620;-67
2023/09/10 11:47:07;;;;;;;11.53;5.90;;;34.00;77.50;;;;;;4998483;28;20453;-67
2023/09/10 11:49:34;;;;;;;11.07;5.73;;;34.20;77.40;;;;;;4989117;28;20990;-67
2023/09/10 11:52:02;;;;;;;11.03;4.97;;;34.50;77.70;;;;;;4983426;28;20477;-67
2023/09/10 11:54:30;;;;;;;8.90;5.50;;;34.80;78.70;;;;;;4980976;28;20485;-67
2023/09/10 11:56:58;;;;;;;8.90;6.00;;;34.90;76.30;;;;;;4985283;28;20477;-67
2023/09/10 11:59:26;;;;;;;15.67;6.07;;;35.10;77.70;;;;;;4980598;28;20458;-66
2023/09/10 12:01:55;;;;;;;8.47;5.03;;;34.80;70.30;;;;;;4987936;28;20452;-67
2023/09/10 12:04:28;;;;;;;14.03;5.60;;;34.60;73.20;;;;;;4986700;28;20822;-66
2023/09/10 12:06:55;;;;;;;7.20;5.20;;;34.60;70.20;;;;;;4989202;28;20484;-66
2023/09/10 12:09:21;;;;;;;13.03;5.60;;;34.30;70.20;;;;;;4990042;28;20888;-66
2023/09/10 12:11:50;;;;;;;10.27;5.57;;;34.20;70.30;;;;;;4975237;28;21020;-64
2023/09/10 12:14:18;;;;;;;9.00;5.63;;;34.30;76.00;;;;;;4980818;28;21155;-66
2023/09/10 12:16:46;;;;;;;13.03;5.63;;;34.10;70.30;;;;;;4984614;28;20467;-65
2023/09/10 12:19:15;;;;;;;9.77;5.93;;;34.20;74.10;;;;;;4993208;28;20477;-66
2023/09/10 12:21:42;;;;;;;8.80;5.27;;;33.90;73.10;;;;;;4989713;28;20449;-65
2023/09/10 12:24:10;;;;;;;8.07;5.77;;;33.80;72.10;;;;;;4992909;28;20448;-65
2023/09/10 12:26:44;;;;;;;9.27;5.87;;;33.60;73.50;;;;;;4991137;28;20612;-65
2023/09/10 12:29:12;;;;;;;7.23;5.40;;;33.90;78.90;;;;;;4991550;28;21144;-65
2023/09/10 12:31:40;;;;;;;5.90;5.40;;;34.00;75.90;;;;;;4984635;28;20775;-64
2023/09/10 12:34:09;;;;;;;6.23;5.63;;;34.30;78.50;;;;;;4992126;28;20452;-65
2023/09/10 12:36:37;;;;;;;8.50;5.67;;;34.50;75.10;;;;;;4990548;28;20478;-65
2023/09/10 12:39:18;;;;;;;5.50;4.90;;;34.80;75.90;;;;;;4991386;28;20460;-65
2023/09/10 12:41:48;;;;;;;22.53;5.20;;;35.10;77.20;;;;;;4980010;28;20854;-65
2023/09/10 12:44:15;;;;;;;9.27;6.10;;;35.40;73.70;;;;;;5000216;28;21876;-66
2023/09/10 12:46:42;;;;;;;7.30;5.17;;;35.60;74.90;;;;;;4988576;28;20484;-65
2023/09/10 12:49:09;;;;;;;13.10;6.23;;;35.50;70.90;;;;;;4988295;28;20472;-65